sensor_id;sensor_type;location;lat;lon;timestamp;P1;durP1;ratioP1;P2;durP2;ratioP2
51852;SDS011;37894;53.172;6.598;2023-07-29T00:01:42;11.75;;;7.25;;
51852;SDS011;37894;53.172;6.598;2023-07-29T00:04:08;11.25;;;7.72;;
51852;SDS011;37894;53.172;6.598;2023-07-29T00:06:34;9.40;;;7.63;;
51852;SDS011;37894;53.172;6.598;2023-07-29T00:09:00;13.27;;;7.50;;
51852;SDS011;37894;53.172;6.598;2023-07-29T00:11:27;10.55;;;7.32;;
51852;SDS011;37894;53.172;6.598;2023-07-29T00:13:53;12.20;;;7.28;;
51852;SDS011;37894;53.172;6.598;2023-07-29T00:16:19;13.13;;;7.22;;
51852;SDS011;37894;53.172;6.598;2023-07-29T00:18:47;10.00;;;6.80;;
51852;SDS011;37894;53.172;6.598;2023-07-29T00:21:13;11.45;;;7.72;;
51852;SDS011;37894;53.172;6.598;2023-07-29T00:23:39;11.02;;;7.45;;
51852;SDS011;37894;53.172;6.598;2023-07-29T00:26:05;10.85;;;7.70;;
51852;SDS011;37894;53.172;6.598;2023-07-29T00:28:30;11.05;;;8.15;;
51852;SDS011;37894;53.172;6.598;2023-07-29T00:30:56;11.30;;;7.57;;
51852;SDS011;37894;53.172;6.598;2023-07-29T00:33:22;11.35;;;7.75;;
51852;SDS011;37894;53.172;6.598;2023-07-29T00:35:48;11.07;;;7.75;;
51852;SDS011;37894;53.172;6.598;2023-07-29T00:38:14;10.95;;;7.20;;
51852;SDS011;37894;53.172;6.598;2023-07-29T00:40:39;11.25;;;7.63;;
51852;SDS011;37894;53.172;6.598;2023-07-29T00:43:05;9.43;;;7.10;;
51852;SDS011;37894;53.172;6.598;2023-07-29T00:45:31;10.88;;;7.43;;
51852;SDS011;37894;53.172;6.598;2023-07-29T00:47:58;14.15;;;7.45;;
51852;SDS011;37894;53.172;6.598;2023-07-29T00:50:24;11.98;;;7.13;;
51852;SDS011;37894;53.172;6.598;2023-07-29T00:52:52;10.68;;;7.63;;
51852;SDS011;37894;53.172;6.598;2023-07-29T00:55:19;10.60;;;7.75;;
51852;SDS011;37894;53.172;6.598;2023-07-29T00:57:45;11.10;;;7.65;;
51852;SDS011;37894;53.172;6.598;2023-07-29T01:00:13;11.90;;;7.40;;
51852;SDS011;37894;53.172;6.598;2023-07-29T01:02:41;13.10;;;7.35;;
51852;SDS011;37894;53.172;6.598;2023-07-29T01:05:08;12.23;;;7.68;;
51852;SDS011;37894;53.172;6.598;2023-07-29T01:07:39;11.55;;;6.93;;
51852;SDS011;37894;53.172;6.598;2023-07-29T01:10:25;12.65;;;8.15;;
51852;SDS011;37894;53.172;6.598;2023-07-29T01:13:05;11.07;;;7.35;;
51852;SDS011;37894;53.172;6.598;2023-07-29T01:16:00;12.75;;;8.07;;
51852;SDS011;37894;53.172;6.598;2023-07-29T01:18:30;12.32;;;7.22;;
51852;SDS011;37894;53.172;6.598;2023-07-29T01:21:02;10.88;;;8.05;;
51852;SDS011;37894;53.172;6.598;2023-07-29T01:23:30;10.82;;;7.43;;
51852;SDS011;37894;53.172;6.598;2023-07-29T01:25:55;9.68;;;7.43;;
51852;SDS011;37894;53.172;6.598;2023-07-29T01:28:21;12.80;;;7.78;;
51852;SDS011;37894;53.172;6.598;2023-07-29T01:30:49;11.52;;;7.30;;
51852;SDS011;37894;53.172;6.598;2023-07-29T01:33:24;12.88;;;7.65;;
51852;SDS011;37894;53.172;6.598;2023-07-29T01:35:54;10.93;;;7.38;;
51852;SDS011;37894;53.172;6.598;2023-07-29T01:38:33;11.75;;;7.65;;
51852;SDS011;37894;53.172;6.598;2023-07-29T01:41:01;14.43;;;8.45;;
51852;SDS011;37894;53.172;6.598;2023-07-29T01:43:28;10.93;;;7.70;;
51852;SDS011;37894;53.172;6.598;2023-07-29T01:45:54;10.98;;;7.85;;
51852;SDS011;37894;53.172;6.598;2023-07-29T01:48:20;13.50;;;7.68;;
51852;SDS011;37894;53.172;6.598;2023-07-29T01:50:47;10.98;;;7.78;;
51852;SDS011;37894;53.172;6.598;2023-07-29T01:53:12;13.15;;;8.35;;
51852;SDS011;37894;53.172;6.598;2023-07-29T01:55:38;12.10;;;8.48;;
51852;SDS011;37894;53.172;6.598;2023-07-29T01:58:04;15.73;;;9.15;;
51852;SDS011;37894;53.172;6.598;2023-07-29T02:00:30;12.02;;;7.45;;
51852;SDS011;37894;53.172;6.598;2023-07-29T02:02:55;12.20;;;9.20;;
51852;SDS011;37894;53.172;6.598;2023-07-29T02:05:21;12.07;;;7.75;;
51852;SDS011;37894;53.172;6.598;2023-07-29T02:07:47;12.57;;;8.50;;
51852;SDS011;37894;53.172;6.598;2023-07-29T02:10:13;14.98;;;9.15;;
51852;SDS011;37894;53.172;6.598;2023-07-29T02:12:38;13.15;;;8.15;;
51852;SDS011;37894;53.172;6.598;2023-07-29T02:15:04;14.07;;;9.15;;
51852;SDS011;37894;53.172;6.598;2023-07-29T02:17:30;20.55;;;9.35;;
51852;SDS011;37894;53.172;6.598;2023-07-29T02:19:56;13.45;;;8.50;;
51852;SDS011;37894;53.172;6.598;2023-07-29T02:22:22;15.57;;;8.32;;
51852;SDS011;37894;53.172;6.598;2023-07-29T02:24:48;15.93;;;8.55;;
51852;SDS011;37894;53.172;6.598;2023-07-29T02:27:13;14.30;;;9.25;;
51852;SDS011;37894;53.172;6.598;2023-07-29T02:29:39;13.35;;;8.55;;
51852;SDS011;37894;53.172;6.598;2023-07-29T02:32:05;14.30;;;8.82;;
51852;SDS011;37894;53.172;6.598;2023-07-29T02:34:30;12.93;;;8.73;;
51852;SDS011;37894;53.172;6.598;2023-07-29T02:36:56;12.63;;;8.43;;
51852;SDS011;37894;53.172;6.598;2023-07-29T02:39:22;11.02;;;8.13;;
51852;SDS011;37894;53.172;6.598;2023-07-29T02:41:48;15.75;;;8.82;;
51852;SDS011;37894;53.172;6.598;2023-07-29T02:44:14;13.38;;;8.43;;
51852;SDS011;37894;53.172;6.598;2023-07-29T02:46:40;12.75;;;7.75;;
51852;SDS011;37894;53.172;6.598;2023-07-29T02:49:06;15.00;;;7.97;;
51852;SDS011;37894;53.172;6.598;2023-07-29T02:51:32;21.10;;;8.65;;
51852;SDS011;37894;53.172;6.598;2023-07-29T02:53:58;12.68;;;8.13;;
51852;SDS011;37894;53.172;6.598;2023-07-29T02:56:24;12.63;;;8.13;;
51852;SDS011;37894;53.172;6.598;2023-07-29T02:58:49;14.90;;;8.13;;
51852;SDS011;37894;53.172;6.598;2023-07-29T03:01:18;12.82;;;8.00;;
51852;SDS011;37894;53.172;6.598;2023-07-29T03:03:44;11.95;;;7.43;;
51852;SDS011;37894;53.172;6.598;2023-07-29T03:06:13;11.38;;;8.23;;
51852;SDS011;37894;53.172;6.598;2023-07-29T03:08:39;11.95;;;7.40;;
51852;SDS011;37894;53.172;6.598;2023-07-29T03:11:06;12.63;;;8.32;;
51852;SDS011;37894;53.172;6.598;2023-07-29T03:13:32;14.65;;;7.53;;
51852;SDS011;37894;53.172;6.598;2023-07-29T03:16:08;11.10;;;7.75;;
51852;SDS011;37894;53.172;6.598;2023-07-29T03:18:39;10.75;;;7.50;;
51852;SDS011;37894;53.172;6.598;2023-07-29T03:21:05;12.85;;;7.97;;
51852;SDS011;37894;53.172;6.598;2023-07-29T03:23:32;11.90;;;7.82;;
51852;SDS011;37894;53.172;6.598;2023-07-29T03:25:59;11.95;;;7.43;;
51852;SDS011;37894;53.172;6.598;2023-07-29T03:28:26;14.32;;;7.38;;
51852;SDS011;37894;53.172;6.598;2023-07-29T03:30:53;18.27;;;8.40;;
51852;SDS011;37894;53.172;6.598;2023-07-29T03:33:19;12.00;;;7.70;;
51852;SDS011;37894;53.172;6.598;2023-07-29T03:35:45;13.23;;;7.45;;
51852;SDS011;37894;53.172;6.598;2023-07-29T03:38:11;12.32;;;7.75;;
51852;SDS011;37894;53.172;6.598;2023-07-29T03:40:37;15.65;;;7.32;;
51852;SDS011;37894;53.172;6.598;2023-07-29T03:43:03;16.42;;;7.45;;
51852;SDS011;37894;53.172;6.598;2023-07-29T03:45:29;9.77;;;6.43;;
51852;SDS011;37894;53.172;6.598;2023-07-29T03:47:55;11.05;;;6.95;;
51852;SDS011;37894;53.172;6.598;2023-07-29T03:50:21;9.73;;;6.82;;
51852;SDS011;37894;53.172;6.598;2023-07-29T03:52:47;10.27;;;6.43;;
51852;SDS011;37894;53.172;6.598;2023-07-29T03:55:12;11.50;;;7.22;;
51852;SDS011;37894;53.172;6.598;2023-07-29T03:57:38;11.95;;;7.65;;
51852;SDS011;37894;53.172;6.598;2023-07-29T04:00:04;13.18;;;6.82;;
51852;SDS011;37894;53.172;6.598;2023-07-29T04:02:31;11.35;;;6.57;;
51852;SDS011;37894;53.172;6.598;2023-07-29T04:04:56;13.55;;;7.20;;
51852;SDS011;37894;53.172;6.598;2023-07-29T04:07:22;11.20;;;6.47;;
51852;SDS011;37894;53.172;6.598;2023-07-29T04:09:48;10.65;;;6.25;;
51852;SDS011;37894;53.172;6.598;2023-07-29T04:12:14;13.50;;;7.15;;
51852;SDS011;37894;53.172;6.598;2023-07-29T04:14:40;12.02;;;6.85;;
51852;SDS011;37894;53.172;6.598;2023-07-29T04:17:06;10.07;;;6.68;;
51852;SDS011;37894;53.172;6.598;2023-07-29T04:19:32;9.23;;;6.03;;
51852;SDS011;37894;53.172;6.598;2023-07-29T04:21:58;9.95;;;5.50;;
51852;SDS011;37894;53.172;6.598;2023-07-29T04:24:24;9.13;;;5.82;;
51852;SDS011;37894;53.172;6.598;2023-07-29T04:26:50;10.68;;;6.00;;
51852;SDS011;37894;53.172;6.598;2023-07-29T04:29:16;14.65;;;6.53;;
51852;SDS011;37894;53.172;6.598;2023-07-29T04:31:42;12.10;;;6.07;;
51852;SDS011;37894;53.172;6.598;2023-07-29T04:34:08;12.30;;;5.85;;
51852;SDS011;37894;53.172;6.598;2023-07-29T04:36:34;11.65;;;6.18;;
51852;SDS011;37894;53.172;6.598;2023-07-29T04:39:00;12.32;;;5.93;;
51852;SDS011;37894;53.172;6.598;2023-07-29T04:41:25;9.55;;;5.40;;
51852;SDS011;37894;53.172;6.598;2023-07-29T04:43:51;10.70;;;5.20;;
51852;SDS011;37894;53.172;6.598;2023-07-29T04:46:17;8.95;;;5.05;;
51852;SDS011;37894;53.172;6.598;2023-07-29T04:48:43;14.25;;;5.93;;
51852;SDS011;37894;53.172;6.598;2023-07-29T04:51:08;8.65;;;4.95;;
51852;SDS011;37894;53.172;6.598;2023-07-29T04:53:34;8.30;;;4.70;;
51852;SDS011;37894;53.172;6.598;2023-07-29T04:56:02;7.32;;;4.43;;
51852;SDS011;37894;53.172;6.598;2023-07-29T04:58:27;7.93;;;4.75;;
51852;SDS011;37894;53.172;6.598;2023-07-29T05:00:55;6.70;;;4.28;;
51852;SDS011;37894;53.172;6.598;2023-07-29T05:03:21;8.23;;;4.85;;
51852;SDS011;37894;53.172;6.598;2023-07-29T05:05:46;11.70;;;4.63;;
51852;SDS011;37894;53.172;6.598;2023-07-29T05:08:16;9.85;;;4.05;;
51852;SDS011;37894;53.172;6.598;2023-07-29T05:10:42;7.22;;;3.90;;
51852;SDS011;37894;53.172;6.598;2023-07-29T05:13:07;7.63;;;4.13;;
51852;SDS011;37894;53.172;6.598;2023-07-29T05:15:33;7.10;;;3.95;;
51852;SDS011;37894;53.172;6.598;2023-07-29T05:17:59;8.48;;;3.85;;
51852;SDS011;37894;53.172;6.598;2023-07-29T05:20:24;7.07;;;3.55;;
51852;SDS011;37894;53.172;6.598;2023-07-29T05:22:50;8.20;;;3.45;;
51852;SDS011;37894;53.172;6.598;2023-07-29T05:25:19;9.82;;;4.47;;
51852;SDS011;37894;53.172;6.598;2023-07-29T05:27:44;6.78;;;3.50;;
51852;SDS011;37894;53.172;6.598;2023-07-29T05:30:10;10.13;;;3.92;;
51852;SDS011;37894;53.172;6.598;2023-07-29T05:32:36;6.22;;;3.55;;
51852;SDS011;37894;53.172;6.598;2023-07-29T05:35:01;6.82;;;3.55;;
51852;SDS011;37894;53.172;6.598;2023-07-29T05:37:27;7.35;;;3.05;;
51852;SDS011;37894;53.172;6.598;2023-07-29T05:39:53;8.18;;;3.42;;
51852;SDS011;37894;53.172;6.598;2023-07-29T05:42:18;8.30;;;3.50;;
51852;SDS011;37894;53.172;6.598;2023-07-29T05:44:44;5.95;;;3.38;;
51852;SDS011;37894;53.172;6.598;2023-07-29T05:47:10;7.05;;;3.67;;
51852;SDS011;37894;53.172;6.598;2023-07-29T05:49:36;6.93;;;3.30;;
51852;SDS011;37894;53.172;6.598;2023-07-29T05:52:01;6.35;;;3.70;;
51852;SDS011;37894;53.172;6.598;2023-07-29T05:54:27;6.95;;;3.20;;
51852;SDS011;37894;53.172;6.598;2023-07-29T05:56:53;5.47;;;3.30;;
51852;SDS011;37894;53.172;6.598;2023-07-29T05:59:18;5.95;;;3.10;;
51852;SDS011;37894;53.172;6.598;2023-07-29T06:01:44;8.65;;;3.15;;
51852;SDS011;37894;53.172;6.598;2023-07-29T06:04:10;7.13;;;2.95;;
51852;SDS011;37894;53.172;6.598;2023-07-29T06:06:35;7.35;;;3.35;;
51852;SDS011;37894;53.172;6.598;2023-07-29T06:09:01;7.28;;;2.95;;
51852;SDS011;37894;53.172;6.598;2023-07-29T06:11:27;5.95;;;2.95;;
51852;SDS011;37894;53.172;6.598;2023-07-29T06:13:52;4.85;;;2.78;;
51852;SDS011;37894;53.172;6.598;2023-07-29T06:16:18;7.68;;;2.90;;
51852;SDS011;37894;53.172;6.598;2023-07-29T06:18:44;7.50;;;3.03;;
51852;SDS011;37894;53.172;6.598;2023-07-29T06:21:09;5.28;;;2.45;;
51852;SDS011;37894;53.172;6.598;2023-07-29T06:23:37;10.73;;;2.53;;
51852;SDS011;37894;53.172;6.598;2023-07-29T06:26:03;6.32;;;2.83;;
51852;SDS011;37894;53.172;6.598;2023-07-29T06:28:28;4.85;;;2.75;;
51852;SDS011;37894;53.172;6.598;2023-07-29T06:30:54;7.10;;;2.78;;
51852;SDS011;37894;53.172;6.598;2023-07-29T06:33:20;4.93;;;2.47;;
51852;SDS011;37894;53.172;6.598;2023-07-29T06:35:45;5.50;;;3.10;;
51852;SDS011;37894;53.172;6.598;2023-07-29T06:38:11;4.50;;;2.63;;
51852;SDS011;37894;53.172;6.598;2023-07-29T06:40:37;8.65;;;3.42;;
51852;SDS011;37894;53.172;6.598;2023-07-29T06:43:02;9.65;;;3.38;;
51852;SDS011;37894;53.172;6.598;2023-07-29T06:45:28;7.93;;;2.70;;
51852;SDS011;37894;53.172;6.598;2023-07-29T06:47:54;4.60;;;2.30;;
51852;SDS011;37894;53.172;6.598;2023-07-29T06:50:19;7.82;;;2.30;;
51852;SDS011;37894;53.172;6.598;2023-07-29T06:52:45;7.53;;;2.70;;
51852;SDS011;37894;53.172;6.598;2023-07-29T06:55:11;8.25;;;3.63;;
51852;SDS011;37894;53.172;6.598;2023-07-29T06:57:36;8.90;;;2.55;;
51852;SDS011;37894;53.172;6.598;2023-07-29T07:00:03;9.57;;;3.17;;
51852;SDS011;37894;53.172;6.598;2023-07-29T07:02:29;5.25;;;2.65;;
51852;SDS011;37894;53.172;6.598;2023-07-29T07:04:55;5.80;;;2.70;;
51852;SDS011;37894;53.172;6.598;2023-07-29T07:07:20;8.23;;;3.47;;
51852;SDS011;37894;53.172;6.598;2023-07-29T07:09:46;5.70;;;2.60;;
51852;SDS011;37894;53.172;6.598;2023-07-29T07:12:12;6.32;;;2.40;;
51852;SDS011;37894;53.172;6.598;2023-07-29T07:14:37;7.10;;;2.75;;
51852;SDS011;37894;53.172;6.598;2023-07-29T07:17:03;6.97;;;3.17;;
51852;SDS011;37894;53.172;6.598;2023-07-29T07:19:29;7.88;;;3.35;;
51852;SDS011;37894;53.172;6.598;2023-07-29T07:21:55;7.07;;;3.40;;
51852;SDS011;37894;53.172;6.598;2023-07-29T07:24:20;12.00;;;3.20;;
51852;SDS011;37894;53.172;6.598;2023-07-29T07:26:47;7.55;;;3.33;;
51852;SDS011;37894;53.172;6.598;2023-07-29T07:29:12;8.68;;;3.63;;
51852;SDS011;37894;53.172;6.598;2023-07-29T07:31:38;9.07;;;3.58;;
51852;SDS011;37894;53.172;6.598;2023-07-29T07:34:04;9.73;;;3.40;;
51852;SDS011;37894;53.172;6.598;2023-07-29T07:36:29;8.38;;;3.58;;
51852;SDS011;37894;53.172;6.598;2023-07-29T07:38:55;7.10;;;3.22;;
51852;SDS011;37894;53.172;6.598;2023-07-29T07:41:21;6.78;;;3.90;;
51852;SDS011;37894;53.172;6.598;2023-07-29T07:43:47;12.15;;;4.53;;
51852;SDS011;37894;53.172;6.598;2023-07-29T07:46:13;8.38;;;3.72;;
51852;SDS011;37894;53.172;6.598;2023-07-29T07:48:38;6.40;;;3.88;;
51852;SDS011;37894;53.172;6.598;2023-07-29T07:51:11;8.23;;;4.07;;
51852;SDS011;37894;53.172;6.598;2023-07-29T07:53:37;10.43;;;3.85;;
51852;SDS011;37894;53.172;6.598;2023-07-29T07:56:03;7.25;;;4.03;;
51852;SDS011;37894;53.172;6.598;2023-07-29T07:58:29;8.07;;;3.67;;
51852;SDS011;37894;53.172;6.598;2023-07-29T08:01:01;8.52;;;3.85;;
51852;SDS011;37894;53.172;6.598;2023-07-29T08:03:31;10.48;;;4.00;;
51852;SDS011;37894;53.172;6.598;2023-07-29T08:05:57;6.82;;;3.60;;
51852;SDS011;37894;53.172;6.598;2023-07-29T08:08:22;8.60;;;3.85;;
51852;SDS011;37894;53.172;6.598;2023-07-29T08:10:48;7.07;;;3.17;;
51852;SDS011;37894;53.172;6.598;2023-07-29T08:13:14;9.02;;;3.58;;
51852;SDS011;37894;53.172;6.598;2023-07-29T08:15:40;10.10;;;3.67;;
51852;SDS011;37894;53.172;6.598;2023-07-29T08:18:06;7.72;;;3.35;;
51852;SDS011;37894;53.172;6.598;2023-07-29T08:20:32;6.97;;;3.28;;
51852;SDS011;37894;53.172;6.598;2023-07-29T08:22:58;10.18;;;3.90;;
51852;SDS011;37894;53.172;6.598;2023-07-29T08:25:23;6.65;;;2.92;;
51852;SDS011;37894;53.172;6.598;2023-07-29T08:27:49;7.65;;;3.42;;
51852;SDS011;37894;53.172;6.598;2023-07-29T08:30:15;7.38;;;2.83;;
51852;SDS011;37894;53.172;6.598;2023-07-29T08:32:41;6.68;;;3.10;;
51852;SDS011;37894;53.172;6.598;2023-07-29T08:35:07;6.32;;;3.00;;
51852;SDS011;37894;53.172;6.598;2023-07-29T08:37:33;8.80;;;3.05;;
51852;SDS011;37894;53.172;6.598;2023-07-29T08:39:59;6.80;;;2.75;;
51852;SDS011;37894;53.172;6.598;2023-07-29T08:42:27;8.95;;;3.40;;
51852;SDS011;37894;53.172;6.598;2023-07-29T08:44:56;6.68;;;2.80;;
51852;SDS011;37894;53.172;6.598;2023-07-29T08:47:26;7.82;;;3.28;;
51852;SDS011;37894;53.172;6.598;2023-07-29T08:49:52;7.72;;;2.85;;
51852;SDS011;37894;53.172;6.598;2023-07-29T08:52:20;5.78;;;2.60;;
51852;SDS011;37894;53.172;6.598;2023-07-29T08:54:45;6.57;;;2.45;;
51852;SDS011;37894;53.172;6.598;2023-07-29T08:57:12;8.23;;;3.00;;
51852;SDS011;37894;53.172;6.598;2023-07-29T08:59:39;7.07;;;2.67;;
51852;SDS011;37894;53.172;6.598;2023-07-29T09:02:05;8.52;;;3.13;;
51852;SDS011;37894;53.172;6.598;2023-07-29T09:04:31;6.47;;;2.35;;
51852;SDS011;37894;53.172;6.598;2023-07-29T09:06:57;7.93;;;2.20;;
51852;SDS011;37894;53.172;6.598;2023-07-29T09:09:25;3.25;;;2.00;;
51852;SDS011;37894;53.172;6.598;2023-07-29T09:11:50;5.40;;;2.53;;
51852;SDS011;37894;53.172;6.598;2023-07-29T09:14:16;6.25;;;2.20;;
51852;SDS011;37894;53.172;6.598;2023-07-29T09:16:42;7.57;;;2.40;;
51852;SDS011;37894;53.172;6.598;2023-07-29T09:19:08;7.18;;;2.50;;
51852;SDS011;37894;53.172;6.598;2023-07-29T09:21:34;5.13;;;2.15;;
51852;SDS011;37894;53.172;6.598;2023-07-29T09:24:04;5.80;;;2.20;;
51852;SDS011;37894;53.172;6.598;2023-07-29T09:26:32;5.65;;;1.70;;
51852;SDS011;37894;53.172;6.598;2023-07-29T09:28:59;4.18;;;1.98;;
51852;SDS011;37894;53.172;6.598;2023-07-29T09:31:26;4.20;;;2.00;;
51852;SDS011;37894;53.172;6.598;2023-07-29T09:34:01;5.50;;;2.45;;
51852;SDS011;37894;53.172;6.598;2023-07-29T09:36:30;10.77;;;1.80;;
51852;SDS011;37894;53.172;6.598;2023-07-29T09:38:57;4.03;;;1.85;;
51852;SDS011;37894;53.172;6.598;2023-07-29T09:41:24;4.68;;;1.45;;
51852;SDS011;37894;53.172;6.598;2023-07-29T09:43:54;4.10;;;1.40;;
51852;SDS011;37894;53.172;6.598;2023-07-29T09:46:36;3.45;;;1.50;;
51852;SDS011;37894;53.172;6.598;2023-07-29T09:49:03;4.82;;;1.60;;
51852;SDS011;37894;53.172;6.598;2023-07-29T09:51:30;5.57;;;1.60;;
51852;SDS011;37894;53.172;6.598;2023-07-29T09:53:56;6.00;;;1.50;;
51852;SDS011;37894;53.172;6.598;2023-07-29T09:56:24;6.72;;;1.52;;
51852;SDS011;37894;53.172;6.598;2023-07-29T09:58:57;4.75;;;1.50;;
51852;SDS011;37894;53.172;6.598;2023-07-29T10:01:23;4.50;;;1.70;;
51852;SDS011;37894;53.172;6.598;2023-07-29T10:03:49;4.72;;;1.55;;
51852;SDS011;37894;53.172;6.598;2023-07-29T10:06:16;5.80;;;1.60;;
51852;SDS011;37894;53.172;6.598;2023-07-29T10:08:43;5.45;;;1.40;;
51852;SDS011;37894;53.172;6.598;2023-07-29T10:11:10;4.68;;;1.60;;
51852;SDS011;37894;53.172;6.598;2023-07-29T10:13:37;4.95;;;1.42;;
51852;SDS011;37894;53.172;6.598;2023-07-29T10:16:03;4.05;;;1.60;;
51852;SDS011;37894;53.172;6.598;2023-07-29T10:18:30;4.75;;;1.75;;
51852;SDS011;37894;53.172;6.598;2023-07-29T10:20:58;3.33;;;1.52;;
51852;SDS011;37894;53.172;6.598;2023-07-29T10:23:26;5.40;;;1.67;;
51852;SDS011;37894;53.172;6.598;2023-07-29T10:26:03;4.38;;;1.42;;
51852;SDS011;37894;53.172;6.598;2023-07-29T10:28:30;3.97;;;1.50;;
51852;SDS011;37894;53.172;6.598;2023-07-29T10:30:57;4.22;;;1.50;;
51852;SDS011;37894;53.172;6.598;2023-07-29T10:33:23;5.03;;;1.60;;
51852;SDS011;37894;53.172;6.598;2023-07-29T10:35:50;4.55;;;1.52;;
51852;SDS011;37894;53.172;6.598;2023-07-29T10:38:17;5.10;;;1.40;;
51852;SDS011;37894;53.172;6.598;2023-07-29T10:40:45;3.25;;;1.13;;
51852;SDS011;37894;53.172;6.598;2023-07-29T10:43:35;5.25;;;1.30;;
51852;SDS011;37894;53.172;6.598;2023-07-29T10:46:16;4.30;;;1.20;;
51852;SDS011;37894;53.172;6.598;2023-07-29T10:48:53;4.82;;;1.58;;
51852;SDS011;37894;53.172;6.598;2023-07-29T10:51:29;4.60;;;1.38;;
51852;SDS011;37894;53.172;6.598;2023-07-29T10:54:03;5.68;;;1.80;;
51852;SDS011;37894;53.172;6.598;2023-07-29T10:56:36;6.80;;;1.52;;
51852;SDS011;37894;53.172;6.598;2023-07-29T11:01:44;8.93;;;1.80;;
51852;SDS011;37894;53.172;6.598;2023-07-29T11:04:23;4.32;;;1.60;;
51852;SDS011;37894;53.172;6.598;2023-07-29T11:09:41;4.55;;;1.50;;
51852;SDS011;37894;53.172;6.598;2023-07-29T11:12:36;4.88;;;1.77;;
51852;SDS011;37894;53.172;6.598;2023-07-29T11:20:09;5.93;;;2.10;;
51852;SDS011;37894;53.172;6.598;2023-07-29T11:22:37;5.05;;;1.88;;
51852;SDS011;37894;53.172;6.598;2023-07-29T11:25:03;6.53;;;2.05;;
51852;SDS011;37894;53.172;6.598;2023-07-29T11:27:33;4.20;;;1.88;;
51852;SDS011;37894;53.172;6.598;2023-07-29T11:29:59;6.28;;;2.05;;
51852;SDS011;37894;53.172;6.598;2023-07-29T11:32:27;5.05;;;2.35;;
51852;SDS011;37894;53.172;6.598;2023-07-29T11:34:53;5.90;;;2.10;;
51852;SDS011;37894;53.172;6.598;2023-07-29T11:37:18;6.25;;;2.30;;
51852;SDS011;37894;53.172;6.598;2023-07-29T11:39:46;5.45;;;1.88;;
51852;SDS011;37894;53.172;6.598;2023-07-29T11:42:12;4.05;;;1.80;;
51852;SDS011;37894;53.172;6.598;2023-07-29T11:44:38;4.82;;;2.33;;
51852;SDS011;37894;53.172;6.598;2023-07-29T11:47:07;4.53;;;2.17;;
51852;SDS011;37894;53.172;6.598;2023-07-29T11:49:40;6.43;;;2.30;;
51852;SDS011;37894;53.172;6.598;2023-07-29T11:52:07;6.50;;;2.40;;
51852;SDS011;37894;53.172;6.598;2023-07-29T11:54:37;7.35;;;2.20;;
51852;SDS011;37894;53.172;6.598;2023-07-29T11:57:05;4.95;;;2.03;;
51852;SDS011;37894;53.172;6.598;2023-07-29T11:59:33;6.25;;;1.80;;
51852;SDS011;37894;53.172;6.598;2023-07-29T12:02:07;7.03;;;2.10;;
51852;SDS011;37894;53.172;6.598;2023-07-29T12:04:36;5.22;;;1.70;;
51852;SDS011;37894;53.172;6.598;2023-07-29T12:07:03;4.10;;;2.08;;
51852;SDS011;37894;53.172;6.598;2023-07-29T12:09:29;4.53;;;2.00;;
51852;SDS011;37894;53.172;6.598;2023-07-29T12:11:55;10.38;;;2.03;;
51852;SDS011;37894;53.172;6.598;2023-07-29T12:14:21;4.40;;;1.85;;
51852;SDS011;37894;53.172;6.598;2023-07-29T12:16:50;4.93;;;2.13;;
51852;SDS011;37894;53.172;6.598;2023-07-29T12:19:17;5.50;;;1.98;;
51852;SDS011;37894;53.172;6.598;2023-07-29T12:21:43;4.28;;;1.98;;
51852;SDS011;37894;53.172;6.598;2023-07-29T12:24:09;5.10;;;2.22;;
51852;SDS011;37894;53.172;6.598;2023-07-29T12:26:37;5.47;;;2.10;;
51852;SDS011;37894;53.172;6.598;2023-07-29T12:29:16;4.53;;;1.88;;
51852;SDS011;37894;53.172;6.598;2023-07-29T12:31:46;6.18;;;2.00;;
51852;SDS011;37894;53.172;6.598;2023-07-29T12:34:18;3.90;;;1.88;;
51852;SDS011;37894;53.172;6.598;2023-07-29T12:36:49;6.22;;;1.80;;
51852;SDS011;37894;53.172;6.598;2023-07-29T12:39:25;5.03;;;1.90;;
51852;SDS011;37894;53.172;6.598;2023-07-29T12:41:56;4.57;;;2.15;;
51852;SDS011;37894;53.172;6.598;2023-07-29T12:44:30;6.10;;;1.80;;
51852;SDS011;37894;53.172;6.598;2023-07-29T12:46:58;3.75;;;2.22;;
51852;SDS011;37894;53.172;6.598;2023-07-29T12:49:25;4.55;;;2.28;;
51852;SDS011;37894;53.172;6.598;2023-07-29T12:51:51;4.93;;;1.75;;
51852;SDS011;37894;53.172;6.598;2023-07-29T12:54:17;4.60;;;1.83;;
51852;SDS011;37894;53.172;6.598;2023-07-29T12:56:42;6.38;;;1.95;;
51852;SDS011;37894;53.172;6.598;2023-07-29T12:59:08;4.05;;;1.70;;
51852;SDS011;37894;53.172;6.598;2023-07-29T13:01:34;6.15;;;1.70;;
51852;SDS011;37894;53.172;6.598;2023-07-29T13:03:59;7.10;;;1.83;;
51852;SDS011;37894;53.172;6.598;2023-07-29T13:06:25;4.65;;;2.05;;
51852;SDS011;37894;53.172;6.598;2023-07-29T13:08:51;4.53;;;1.50;;
51852;SDS011;37894;53.172;6.598;2023-07-29T13:11:17;4.80;;;1.80;;
51852;SDS011;37894;53.172;6.598;2023-07-29T13:13:43;6.13;;;1.63;;
51852;SDS011;37894;53.172;6.598;2023-07-29T13:16:10;4.90;;;1.70;;
51852;SDS011;37894;53.172;6.598;2023-07-29T13:18:37;4.70;;;1.90;;
51852;SDS011;37894;53.172;6.598;2023-07-29T13:21:03;4.80;;;1.80;;
51852;SDS011;37894;53.172;6.598;2023-07-29T13:23:28;5.32;;;1.80;;
51852;SDS011;37894;53.172;6.598;2023-07-29T13:25:55;4.65;;;1.77;;
51852;SDS011;37894;53.172;6.598;2023-07-29T13:28:22;7.35;;;2.22;;
51852;SDS011;37894;53.172;6.598;2023-07-29T13:30:48;9.07;;;2.25;;
51852;SDS011;37894;53.172;6.598;2023-07-29T13:33:14;7.68;;;2.00;;
51852;SDS011;37894;53.172;6.598;2023-07-29T13:35:39;9.27;;;2.80;;
51852;SDS011;37894;53.172;6.598;2023-07-29T13:38:05;5.78;;;2.38;;
51852;SDS011;37894;53.172;6.598;2023-07-29T13:42:56;13.48;;;2.65;;
51852;SDS011;37894;53.172;6.598;2023-07-29T13:45:22;5.63;;;2.40;;
51852;SDS011;37894;53.172;6.598;2023-07-29T13:47:48;5.60;;;1.88;;
51852;SDS011;37894;53.172;6.598;2023-07-29T13:50:15;6.05;;;2.35;;
51852;SDS011;37894;53.172;6.598;2023-07-29T13:52:41;6.57;;;2.08;;
51852;SDS011;37894;53.172;6.598;2023-07-29T13:55:07;13.32;;;2.40;;
51852;SDS011;37894;53.172;6.598;2023-07-29T13:57:33;5.80;;;2.85;;
51852;SDS011;37894;53.172;6.598;2023-07-29T13:59:59;8.75;;;2.78;;
51852;SDS011;37894;53.172;6.598;2023-07-29T14:02:24;7.93;;;2.75;;
51852;SDS011;37894;53.172;6.598;2023-07-29T14:04:51;6.65;;;2.95;;
51852;SDS011;37894;53.172;6.598;2023-07-29T14:07:17;5.97;;;2.97;;
51852;SDS011;37894;53.172;6.598;2023-07-29T14:09:43;5.82;;;2.42;;
51852;SDS011;37894;53.172;6.598;2023-07-29T14:12:09;8.27;;;2.60;;
51852;SDS011;37894;53.172;6.598;2023-07-29T14:14:37;9.63;;;2.47;;
51852;SDS011;37894;53.172;6.598;2023-07-29T14:17:04;7.22;;;2.78;;
51852;SDS011;37894;53.172;6.598;2023-07-29T14:19:30;4.57;;;2.40;;
51852;SDS011;37894;53.172;6.598;2023-07-29T14:21:56;6.28;;;2.53;;
51852;SDS011;37894;53.172;6.598;2023-07-29T14:24:22;5.45;;;2.10;;
51852;SDS011;37894;53.172;6.598;2023-07-29T14:26:48;5.10;;;2.28;;
51852;SDS011;37894;53.172;6.598;2023-07-29T14:29:13;6.53;;;2.22;;
51852;SDS011;37894;53.172;6.598;2023-07-29T14:31:39;3.55;;;2.03;;
51852;SDS011;37894;53.172;6.598;2023-07-29T14:34:05;8.68;;;2.72;;
51852;SDS011;37894;53.172;6.598;2023-07-29T14:36:30;6.78;;;2.83;;
51852;SDS011;37894;53.172;6.598;2023-07-29T14:38:56;7.35;;;2.90;;
51852;SDS011;37894;53.172;6.598;2023-07-29T14:41:22;6.05;;;2.53;;
51852;SDS011;37894;53.172;6.598;2023-07-29T14:43:48;8.43;;;2.70;;
51852;SDS011;37894;53.172;6.598;2023-07-29T14:46:13;6.35;;;2.70;;
51852;SDS011;37894;53.172;6.598;2023-07-29T14:48:39;6.80;;;2.20;;
51852;SDS011;37894;53.172;6.598;2023-07-29T14:51:05;7.75;;;2.22;;
51852;SDS011;37894;53.172;6.598;2023-07-29T14:53:30;5.85;;;2.25;;
51852;SDS011;37894;53.172;6.598;2023-07-29T14:55:56;8.02;;;2.53;;